sensor_id;sensor_type;location;lat;lon;timestamp;P1;durP1;ratioP1;P2;durP2;ratioP2
71790;SDS011;59638;52.126;5.434;2023-08-31T00:00:55;4.60;;;0.77;;
71790;SDS011;59638;52.126;5.434;2023-08-31T00:03:21;1.60;;;0.70;;
71790;SDS011;59638;52.126;5.434;2023-08-31T00:05:48;2.70;;;0.75;;
71790;SDS011;59638;52.126;5.434;2023-08-31T00:08:17;3.35;;;0.70;;
71790;SDS011;59638;52.126;5.434;2023-08-31T00:10:44;3.50;;;1.07;;
71790;SDS011;59638;52.126;5.434;2023-08-31T00:13:11;2.45;;;0.75;;
71790;SDS011;59638;52.126;5.434;2023-08-31T00:15:39;1.35;;;0.60;;
71790;SDS011;59638;52.126;5.434;2023-08-31T00:18:07;5.95;;;0.75;;
71790;SDS011;59638;52.126;5.434;2023-08-31T00:20:34;4.43;;;0.80;;
71790;SDS011;59638;52.126;5.434;2023-08-31T00:23:01;2.90;;;0.80;;
71790;SDS011;59638;52.126;5.434;2023-08-31T00:25:27;2.65;;;0.80;;
71790;SDS011;59638;52.126;5.434;2023-08-31T00:27:55;1.65;;;0.55;;
71790;SDS011;59638;52.126;5.434;2023-08-31T00:30:23;8.57;;;1.25;;
71790;SDS011;59638;52.126;5.434;2023-08-31T00:32:55;3.50;;;0.80;;
71790;SDS011;59638;52.126;5.434;2023-08-31T00:35:26;7.00;;;1.00;;
71790;SDS011;59638;52.126;5.434;2023-08-31T00:37:56;3.90;;;0.82;;
71790;SDS011;59638;52.126;5.434;2023-08-31T00:40:26;1.70;;;0.98;;
71790;SDS011;59638;52.126;5.434;2023-08-31T00:42:57;3.05;;;0.80;;
71790;SDS011;59638;52.126;5.434;2023-08-31T00:45:23;3.38;;;0.57;;
71790;SDS011;59638;52.126;5.434;2023-08-31T00:47:50;3.77;;;1.00;;
71790;SDS011;59638;52.126;5.434;2023-08-31T00:50:16;2.50;;;0.80;;
71790;SDS011;59638;52.126;5.434;2023-08-31T00:52:43;3.17;;;0.88;;
71790;SDS011;59638;52.126;5.434;2023-08-31T00:55:13;3.67;;;0.73;;
71790;SDS011;59638;52.126;5.434;2023-08-31T00:57:40;2.72;;;0.65;;
71790;SDS011;59638;52.126;5.434;2023-08-31T01:00:07;3.77;;;0.83;;
71790;SDS011;59638;52.126;5.434;2023-08-31T01:02:37;2.55;;;0.70;;
71790;SDS011;59638;52.126;5.434;2023-08-31T01:05:25;7.28;;;1.10;;
71790;SDS011;59638;52.126;5.434;2023-08-31T01:13:57;3.40;;;1.20;;
71790;SDS011;59638;52.126;5.434;2023-08-31T01:16:32;3.10;;;1.30;;
71790;SDS011;59638;52.126;5.434;2023-08-31T01:19:01;3.83;;;1.10;;
71790;SDS011;59638;52.126;5.434;2023-08-31T01:21:37;7.90;;;1.58;;
71790;SDS011;59638;52.126;5.434;2023-08-31T01:24:06;3.70;;;2.05;;
71790;SDS011;59638;52.126;5.434;2023-08-31T01:26:34;5.60;;;2.20;;
71790;SDS011;59638;52.126;5.434;2023-08-31T01:29:01;3.42;;;1.70;;
71790;SDS011;59638;52.126;5.434;2023-08-31T01:31:28;2.45;;;1.67;;
71790;SDS011;59638;52.126;5.434;2023-08-31T01:33:55;5.45;;;1.88;;
71790;SDS011;59638;52.126;5.434;2023-08-31T01:36:31;3.38;;;1.75;;
71790;SDS011;59638;52.126;5.434;2023-08-31T01:42:07;6.05;;;1.92;;
71790;SDS011;59638;52.126;5.434;2023-08-31T01:44:36;6.90;;;2.67;;
71790;SDS011;59638;52.126;5.434;2023-08-31T01:47:04;5.90;;;2.60;;
71790;SDS011;59638;52.126;5.434;2023-08-31T01:49:38;3.80;;;2.88;;
71790;SDS011;59638;52.126;5.434;2023-08-31T01:52:06;5.70;;;3.00;;
71790;SDS011;59638;52.126;5.434;2023-08-31T01:54:33;7.82;;;3.50;;
71790;SDS011;59638;52.126;5.434;2023-08-31T01:57:00;4.00;;;2.78;;
71790;SDS011;59638;52.126;5.434;2023-08-31T01:59:27;8.77;;;2.83;;
71790;SDS011;59638;52.126;5.434;2023-08-31T02:01:53;5.32;;;2.70;;
71790;SDS011;59638;52.126;5.434;2023-08-31T02:04:20;4.77;;;2.87;;
71790;SDS011;59638;52.126;5.434;2023-08-31T02:06:47;4.22;;;2.50;;
71790;SDS011;59638;52.126;5.434;2023-08-31T02:09:13;2.67;;;1.90;;
71790;SDS011;59638;52.126;5.434;2023-08-31T02:11:40;4.85;;;2.22;;
71790;SDS011;59638;52.126;5.434;2023-08-31T02:14:07;4.47;;;2.78;;
71790;SDS011;59638;52.126;5.434;2023-08-31T02:16:34;5.53;;;2.87;;
71790;SDS011;59638;52.126;5.434;2023-08-31T02:19:00;4.93;;;2.83;;
71790;SDS011;59638;52.126;5.434;2023-08-31T02:21:27;4.40;;;2.92;;
71790;SDS011;59638;52.126;5.434;2023-08-31T02:23:53;5.57;;;2.65;;
71790;SDS011;59638;52.126;5.434;2023-08-31T02:26:20;7.68;;;3.35;;
71790;SDS011;59638;52.126;5.434;2023-08-31T02:28:47;3.20;;;2.77;;
71790;SDS011;59638;52.126;5.434;2023-08-31T02:31:14;7.93;;;3.33;;
71790;SDS011;59638;52.126;5.434;2023-08-31T02:33:40;11.40;;;3.10;;
71790;SDS011;59638;52.126;5.434;2023-08-31T02:36:07;4.65;;;2.72;;
71790;SDS011;59638;52.126;5.434;2023-08-31T02:38:33;6.70;;;3.10;;
71790;SDS011;59638;52.126;5.434;2023-08-31T02:41:00;4.43;;;2.60;;
71790;SDS011;59638;52.126;5.434;2023-08-31T02:43:26;6.78;;;2.80;;
71790;SDS011;59638;52.126;5.434;2023-08-31T02:46:00;3.88;;;2.08;;
71790;SDS011;59638;52.126;5.434;2023-08-31T02:48:28;5.28;;;2.83;;
71790;SDS011;59638;52.126;5.434;2023-08-31T02:50:57;5.63;;;2.70;;
71790;SDS011;59638;52.126;5.434;2023-08-31T02:53:24;4.87;;;2.70;;
71790;SDS011;59638;52.126;5.434;2023-08-31T02:55:51;3.63;;;2.78;;
71790;SDS011;59638;52.126;5.434;2023-08-31T02:58:17;3.95;;;2.78;;
71790;SDS011;59638;52.126;5.434;2023-08-31T03:00:45;4.82;;;3.10;;
71790;SDS011;59638;52.126;5.434;2023-08-31T03:03:15;11.55;;;3.30;;
71790;SDS011;59638;52.126;5.434;2023-08-31T03:05:42;3.33;;;2.80;;
71790;SDS011;59638;52.126;5.434;2023-08-31T03:08:09;3.92;;;2.83;;
71790;SDS011;59638;52.126;5.434;2023-08-31T03:10:36;6.00;;;2.63;;
71790;SDS011;59638;52.126;5.434;2023-08-31T03:13:03;3.63;;;2.90;;
71790;SDS011;59638;52.126;5.434;2023-08-31T03:15:31;3.25;;;2.92;;
71790;SDS011;59638;52.126;5.434;2023-08-31T03:18:00;7.47;;;3.03;;
71790;SDS011;59638;52.126;5.434;2023-08-31T03:20:26;4.68;;;2.65;;
71790;SDS011;59638;52.126;5.434;2023-08-31T03:22:53;4.68;;;2.85;;
71790;SDS011;59638;52.126;5.434;2023-08-31T03:25:19;3.65;;;2.35;;
71790;SDS011;59638;52.126;5.434;2023-08-31T03:27:46;7.53;;;2.40;;
71790;SDS011;59638;52.126;5.434;2023-08-31T03:30:12;2.97;;;1.97;;
71790;SDS011;59638;52.126;5.434;2023-08-31T03:32:39;4.03;;;2.47;;
71790;SDS011;59638;52.126;5.434;2023-08-31T03:35:06;3.38;;;2.25;;
71790;SDS011;59638;52.126;5.434;2023-08-31T03:37:33;7.68;;;2.20;;
71790;SDS011;59638;52.126;5.434;2023-08-31T03:40:00;3.58;;;2.28;;
71790;SDS011;59638;52.126;5.434;2023-08-31T03:42:26;4.60;;;1.90;;
71790;SDS011;59638;52.126;5.434;2023-08-31T03:44:52;5.53;;;2.00;;
71790;SDS011;59638;52.126;5.434;2023-08-31T03:47:19;2.80;;;1.48;;
71790;SDS011;59638;52.126;5.434;2023-08-31T03:49:45;3.45;;;1.25;;
71790;SDS011;59638;52.126;5.434;2023-08-31T03:52:12;4.75;;;1.90;;
71790;SDS011;59638;52.126;5.434;2023-08-31T03:54:38;5.30;;;1.50;;
71790;SDS011;59638;52.126;5.434;2023-08-31T03:57:05;3.40;;;1.33;;
71790;SDS011;59638;52.126;5.434;2023-08-31T03:59:31;5.78;;;1.40;;
71790;SDS011;59638;52.126;5.434;2023-08-31T04:01:57;6.05;;;0.93;;
71790;SDS011;59638;52.126;5.434;2023-08-31T04:04:24;3.47;;;0.95;;
71790;SDS011;59638;52.126;5.434;2023-08-31T04:06:50;5.73;;;1.23;;
71790;SDS011;59638;52.126;5.434;2023-08-31T04:09:17;2.88;;;0.98;;
71790;SDS011;59638;52.126;5.434;2023-08-31T04:11:45;4.75;;;0.82;;
71790;SDS011;59638;52.126;5.434;2023-08-31T04:14:12;3.78;;;1.02;;
71790;SDS011;59638;52.126;5.434;2023-08-31T04:16:39;6.10;;;0.82;;
71790;SDS011;59638;52.126;5.434;2023-08-31T04:19:05;3.00;;;0.90;;
71790;SDS011;59638;52.126;5.434;2023-08-31T04:21:32;1.85;;;1.08;;
71790;SDS011;59638;52.126;5.434;2023-08-31T04:23:58;3.70;;;0.90;;
71790;SDS011;59638;52.126;5.434;2023-08-31T04:26:26;5.45;;;1.75;;
71790;SDS011;59638;52.126;5.434;2023-08-31T04:28:54;7.47;;;1.75;;
71790;SDS011;59638;52.126;5.434;2023-08-31T04:31:20;3.73;;;1.80;;
71790;SDS011;59638;52.126;5.434;2023-08-31T04:33:47;4.38;;;1.73;;
71790;SDS011;59638;52.126;5.434;2023-08-31T04:36:14;3.22;;;1.42;;
71790;SDS011;59638;52.126;5.434;2023-08-31T04:38:40;3.28;;;1.45;;
71790;SDS011;59638;52.126;5.434;2023-08-31T04:41:07;4.68;;;1.70;;
71790;SDS011;59638;52.126;5.434;2023-08-31T04:43:34;7.50;;;1.80;;
71790;SDS011;59638;52.126;5.434;2023-08-31T04:46:00;4.13;;;1.80;;
71790;SDS011;59638;52.126;5.434;2023-08-31T04:48:29;5.20;;;2.05;;
71790;SDS011;59638;52.126;5.434;2023-08-31T04:50:56;3.95;;;2.50;;
71790;SDS011;59638;52.126;5.434;2023-08-31T04:53:23;4.50;;;2.40;;
71790;SDS011;59638;52.126;5.434;2023-08-31T04:55:50;6.53;;;2.40;;
71790;SDS011;59638;52.126;5.434;2023-08-31T04:58:17;3.50;;;1.88;;
71790;SDS011;59638;52.126;5.434;2023-08-31T05:00:43;2.38;;;1.58;;
71790;SDS011;59638;52.126;5.434;2023-08-31T05:03:10;4.82;;;1.83;;
71790;SDS011;59638;52.126;5.434;2023-08-31T05:05:37;4.05;;;1.45;;
71790;SDS011;59638;52.126;5.434;2023-08-31T05:08:04;4.10;;;1.20;;
71790;SDS011;59638;52.126;5.434;2023-08-31T05:10:31;2.08;;;1.27;;
71790;SDS011;59638;52.126;5.434;2023-08-31T05:12:57;3.58;;;1.08;;
71790;SDS011;59638;52.126;5.434;2023-08-31T05:15:24;4.32;;;1.00;;
71790;SDS011;59638;52.126;5.434;2023-08-31T05:17:53;2.83;;;0.55;;
71790;SDS011;59638;52.126;5.434;2023-08-31T05:20:20;5.17;;;0.50;;
71790;SDS011;59638;52.126;5.434;2023-08-31T05:22:49;5.03;;;0.50;;
71790;SDS011;59638;52.126;5.434;2023-08-31T05:25:15;4.68;;;0.73;;
71790;SDS011;59638;52.126;5.434;2023-08-31T05:27:41;2.40;;;0.75;;
71790;SDS011;59638;52.126;5.434;2023-08-31T05:30:08;5.97;;;1.45;;
71790;SDS011;59638;52.126;5.434;2023-08-31T05:32:35;3.07;;;1.60;;
71790;SDS011;59638;52.126;5.434;2023-08-31T05:35:01;4.82;;;1.80;;
71790;SDS011;59638;52.126;5.434;2023-08-31T05:37:33;2.50;;;1.80;;
71790;SDS011;59638;52.126;5.434;2023-08-31T05:40:00;7.10;;;1.95;;
71790;SDS011;59638;52.126;5.434;2023-08-31T05:42:27;5.38;;;2.35;;
71790;SDS011;59638;52.126;5.434;2023-08-31T05:44:53;6.40;;;3.67;;
71790;SDS011;59638;52.126;5.434;2023-08-31T05:47:20;7.88;;;3.92;;
71790;SDS011;59638;52.126;5.434;2023-08-31T05:49:46;5.97;;;3.25;;
71790;SDS011;59638;52.126;5.434;2023-08-31T05:52:13;6.30;;;4.03;;
71790;SDS011;59638;52.126;5.434;2023-08-31T05:54:39;6.63;;;3.67;;
71790;SDS011;59638;52.126;5.434;2023-08-31T05:57:06;16.17;;;3.37;;
71790;SDS011;59638;52.126;5.434;2023-08-31T05:59:32;3.80;;;3.33;;
71790;SDS011;59638;52.126;5.434;2023-08-31T06:01:59;6.60;;;3.78;;
71790;SDS011;59638;52.126;5.434;2023-08-31T06:04:25;6.05;;;3.25;;
71790;SDS011;59638;52.126;5.434;2023-08-31T06:06:52;4.93;;;3.50;;
71790;SDS011;59638;52.126;5.434;2023-08-31T06:09:20;5.97;;;3.27;;
71790;SDS011;59638;52.126;5.434;2023-08-31T06:11:46;5.70;;;4.25;;
71790;SDS011;59638;52.126;5.434;2023-08-31T06:14:13;9.45;;;3.25;;
71790;SDS011;59638;52.126;5.434;2023-08-31T06:16:39;4.50;;;2.35;;
71790;SDS011;59638;52.126;5.434;2023-08-31T06:19:06;3.13;;;2.00;;
71790;SDS011;59638;52.126;5.434;2023-08-31T06:21:32;3.67;;;2.10;;
71790;SDS011;59638;52.126;5.434;2023-08-31T06:23:59;5.10;;;2.05;;
71790;SDS011;59638;52.126;5.434;2023-08-31T06:26:25;7.43;;;1.50;;
71790;SDS011;59638;52.126;5.434;2023-08-31T06:28:52;3.97;;;2.05;;
71790;SDS011;59638;52.126;5.434;2023-08-31T06:31:18;5.30;;;2.97;;
71790;SDS011;59638;52.126;5.434;2023-08-31T06:33:45;7.90;;;3.00;;
71790;SDS011;59638;52.126;5.434;2023-08-31T06:36:12;9.15;;;5.22;;
71790;SDS011;59638;52.126;5.434;2023-08-31T06:38:38;6.85;;;4.25;;
71790;SDS011;59638;52.126;5.434;2023-08-31T06:41:05;7.25;;;5.22;;
71790;SDS011;59638;52.126;5.434;2023-08-31T06:43:32;8.32;;;5.20;;
71790;SDS011;59638;52.126;5.434;2023-08-31T06:45:58;7.23;;;4.50;;
71790;SDS011;59638;52.126;5.434;2023-08-31T06:48:45;6.85;;;4.78;;
71790;SDS011;59638;52.126;5.434;2023-08-31T06:51:11;3.92;;;3.33;;
71790;SDS011;59638;52.126;5.434;2023-08-31T06:53:38;6.13;;;2.70;;
71790;SDS011;59638;52.126;5.434;2023-08-31T06:56:04;3.97;;;1.92;;
71790;SDS011;59638;52.126;5.434;2023-08-31T06:58:30;9.07;;;1.60;;
71790;SDS011;59638;52.126;5.434;2023-08-31T07:00:57;3.95;;;1.67;;
71790;SDS011;59638;52.126;5.434;2023-08-31T07:03:24;2.80;;;1.98;;
71790;SDS011;59638;52.126;5.434;2023-08-31T07:05:53;7.28;;;3.22;;
71790;SDS011;59638;52.126;5.434;2023-08-31T07:08:20;5.20;;;3.28;;
71790;SDS011;59638;52.126;5.434;2023-08-31T07:10:47;9.47;;;4.03;;
71790;SDS011;59638;52.126;5.434;2023-08-31T07:13:13;4.22;;;3.78;;
71790;SDS011;59638;52.126;5.434;2023-08-31T07:15:40;3.33;;;3.03;;
71790;SDS011;59638;52.126;5.434;2023-08-31T07:18:07;5.80;;;3.50;;
71790;SDS011;59638;52.126;5.434;2023-08-31T07:20:34;6.93;;;3.17;;
71790;SDS011;59638;52.126;5.434;2023-08-31T07:23:00;6.90;;;3.80;;
71790;SDS011;59638;52.126;5.434;2023-08-31T07:25:27;5.75;;;3.22;;
71790;SDS011;59638;52.126;5.434;2023-08-31T07:27:54;6.63;;;2.50;;
71790;SDS011;59638;52.126;5.434;2023-08-31T07:30:21;6.30;;;2.65;;
71790;SDS011;59638;52.126;5.434;2023-08-31T07:32:47;4.22;;;2.10;;
71790;SDS011;59638;52.126;5.434;2023-08-31T07:35:14;3.97;;;2.17;;
71790;SDS011;59638;52.126;5.434;2023-08-31T07:37:40;9.30;;;2.45;;
71790;SDS011;59638;52.126;5.434;2023-08-31T07:40:07;4.40;;;2.30;;
71790;SDS011;59638;52.126;5.434;2023-08-31T07:42:36;3.97;;;3.00;;
71790;SDS011;59638;52.126;5.434;2023-08-31T07:45:03;7.03;;;3.22;;
71790;SDS011;59638;52.126;5.434;2023-08-31T07:47:31;6.13;;;3.53;;
71790;SDS011;59638;52.126;5.434;2023-08-31T07:49:58;4.03;;;3.08;;
71790;SDS011;59638;52.126;5.434;2023-08-31T07:52:24;5.38;;;3.15;;
71790;SDS011;59638;52.126;5.434;2023-08-31T07:54:51;8.00;;;3.13;;
71790;SDS011;59638;52.126;5.434;2023-08-31T07:57:17;5.10;;;3.30;;
71790;SDS011;59638;52.126;5.434;2023-08-31T07:59:44;3.57;;;2.27;;
71790;SDS011;59638;52.126;5.434;2023-08-31T08:02:10;4.25;;;2.42;;
71790;SDS011;59638;52.126;5.434;2023-08-31T08:04:37;4.60;;;1.48;;
71790;SDS011;59638;52.126;5.434;2023-08-31T08:07:03;6.15;;;1.00;;
71790;SDS011;59638;52.126;5.434;2023-08-31T08:09:30;2.42;;;1.05;;
71790;SDS011;59638;52.126;5.434;2023-08-31T08:11:56;3.93;;;1.53;;
71790;SDS011;59638;52.126;5.434;2023-08-31T08:14:23;4.72;;;2.17;;
71790;SDS011;59638;52.126;5.434;2023-08-31T08:16:49;2.60;;;2.03;;
71790;SDS011;59638;52.126;5.434;2023-08-31T08:19:20;5.45;;;2.30;;
71790;SDS011;59638;52.126;5.434;2023-08-31T08:21:48;5.05;;;2.30;;
71790;SDS011;59638;52.126;5.434;2023-08-31T08:24:15;3.70;;;2.33;;
71790;SDS011;59638;52.126;5.434;2023-08-31T08:26:42;4.00;;;2.92;;
71790;SDS011;59638;52.126;5.434;2023-08-31T08:29:09;3.42;;;2.97;;
71790;SDS011;59638;52.126;5.434;2023-08-31T08:31:35;6.18;;;3.67;;
71790;SDS011;59638;52.126;5.434;2023-08-31T08:34:02;8.07;;;3.10;;
71790;SDS011;59638;52.126;5.434;2023-08-31T08:36:30;6.10;;;3.20;;
71790;SDS011;59638;52.126;5.434;2023-08-31T08:38:56;4.45;;;3.05;;
71790;SDS011;59638;52.126;5.434;2023-08-31T08:41:23;4.00;;;3.47;;
71790;SDS011;59638;52.126;5.434;2023-08-31T08:43:50;8.88;;;3.75;;
71790;SDS011;59638;52.126;5.434;2023-08-31T08:46:18;6.72;;;3.05;;
71790;SDS011;59638;52.126;5.434;2023-08-31T08:48:45;3.87;;;3.37;;
71790;SDS011;59638;52.126;5.434;2023-08-31T08:51:13;3.80;;;3.50;;
71790;SDS011;59638;52.126;5.434;2023-08-31T08:53:43;4.38;;;3.50;;
71790;SDS011;59638;52.126;5.434;2023-08-31T08:56:10;5.40;;;3.20;;
71790;SDS011;59638;52.126;5.434;2023-08-31T08:58:37;5.40;;;3.58;;
71790;SDS011;59638;52.126;5.434;2023-08-31T09:01:03;11.93;;;4.93;;
71790;SDS011;59638;52.126;5.434;2023-08-31T09:03:33;9.68;;;3.90;;
71790;SDS011;59638;52.126;5.434;2023-08-31T09:06:01;3.08;;;2.78;;
71790;SDS011;59638;52.126;5.434;2023-08-31T09:08:32;3.10;;;2.38;;
71790;SDS011;59638;52.126;5.434;2023-08-31T09:10:58;7.70;;;2.47;;
71790;SDS011;59638;52.126;5.434;2023-08-31T09:13:28;6.30;;;2.20;;
71790;SDS011;59638;52.126;5.434;2023-08-31T09:15:56;4.43;;;1.85;;
71790;SDS011;59638;52.126;5.434;2023-08-31T09:18:26;2.72;;;1.10;;
71790;SDS011;59638;52.126;5.434;2023-08-31T09:20:54;4.50;;;1.98;;
71790;SDS011;59638;52.126;5.434;2023-08-31T09:23:25;4.55;;;1.50;;
71790;SDS011;59638;52.126;5.434;2023-08-31T09:25:53;5.20;;;1.23;;
71790;SDS011;59638;52.126;5.434;2023-08-31T09:28:21;2.97;;;0.80;;
71790;SDS011;59638;52.126;5.434;2023-08-31T09:30:52;3.13;;;1.25;;
71790;SDS011;59638;52.126;5.434;2023-08-31T09:33:28;4.18;;;0.65;;
71790;SDS011;59638;52.126;5.434;2023-08-31T09:35:57;2.63;;;0.60;;
71790;SDS011;59638;52.126;5.434;2023-08-31T09:38:26;4.17;;;0.50;;
71790;SDS011;59638;52.126;5.434;2023-08-31T09:40:58;5.45;;;0.60;;
71790;SDS011;59638;52.126;5.434;2023-08-31T09:43:30;2.35;;;0.55;;
71790;SDS011;59638;52.126;5.434;2023-08-31T09:45:57;5.40;;;0.63;;
71790;SDS011;59638;52.126;5.434;2023-08-31T09:48:26;2.03;;;0.28;;
71790;SDS011;59638;52.126;5.434;2023-08-31T09:50:53;3.80;;;0.50;;
71790;SDS011;59638;52.126;5.434;2023-08-31T09:53:21;2.67;;;0.30;;
71790;SDS011;59638;52.126;5.434;2023-08-31T09:55:53;8.13;;;0.80;;
71790;SDS011;59638;52.126;5.434;2023-08-31T09:58:22;3.53;;;0.73;;
71790;SDS011;59638;52.126;5.434;2023-08-31T10:00:50;2.08;;;0.30;;
71790;SDS011;59638;52.126;5.434;2023-08-31T10:03:19;1.33;;;0.33;;
71790;SDS011;59638;52.126;5.434;2023-08-31T10:05:48;2.10;;;0.20;;
71790;SDS011;59638;52.126;5.434;2023-08-31T10:08:16;2.22;;;0.70;;
71790;SDS011;59638;52.126;5.434;2023-08-31T10:10:44;2.72;;;0.30;;
71790;SDS011;59638;52.126;5.434;2023-08-31T10:13:11;2.08;;;0.20;;
71790;SDS011;59638;52.126;5.434;2023-08-31T10:15:38;2.03;;;0.20;;
71790;SDS011;59638;52.126;5.434;2023-08-31T10:18:06;2.33;;;0.20;;
71790;SDS011;59638;52.126;5.434;2023-08-31T10:20:33;1.80;;;0.30;;
71790;SDS011;59638;52.126;5.434;2023-08-31T10:23:03;0.60;;;0.52;;
71790;SDS011;59638;52.126;5.434;2023-08-31T10:28:16;1.03;;;0.30;;
71790;SDS011;59638;52.126;5.434;2023-08-31T10:30:59;1.58;;;0.15;;
71790;SDS011;59638;52.126;5.434;2023-08-31T10:33:26;1.10;;;0.20;;
71790;SDS011;59638;52.126;5.434;2023-08-31T10:35:56;1.02;;;0.20;;
71790;SDS011;59638;52.126;5.434;2023-08-31T10:38:24;1.67;;;0.20;;
71790;SDS011;59638;52.126;5.434;2023-08-31T10:44:04;1.75;;;0.20;;
71790;SDS011;59638;52.126;5.434;2023-08-31T10:49:01;2.38;;;1.05;;
71790;SDS011;59638;52.126;5.434;2023-08-31T10:51:37;3.97;;;0.20;;
71790;SDS011;59638;52.126;5.434;2023-08-31T10:59:26;4.25;;;0.20;;
71790;SDS011;59638;52.126;5.434;2023-08-31T11:02:07;3.20;;;0.20;;
71790;SDS011;59638;52.126;5.434;2023-08-31T11:04:54;1.95;;;0.20;;
71790;SDS011;59638;52.126;5.434;2023-08-31T11:07:26;1.23;;;0.20;;
71790;SDS011;59638;52.126;5.434;2023-08-31T11:10:14;0.60;;;0.20;;
71790;SDS011;59638;52.126;5.434;2023-08-31T11:12:53;1.15;;;0.13;;
71790;SDS011;59638;52.126;5.434;2023-08-31T11:15:21;0.98;;;0.30;;
71790;SDS011;59638;52.126;5.434;2023-08-31T11:17:52;1.00;;;0.30;;
71790;SDS011;59638;52.126;5.434;2023-08-31T11:20:20;1.30;;;0.30;;
71790;SDS011;59638;52.126;5.434;2023-08-31T11:22:49;1.05;;;0.20;;
71790;SDS011;59638;52.126;5.434;2023-08-31T11:25:17;1.67;;;0.40;;
71790;SDS011;59638;52.126;5.434;2023-08-31T11:28:18;1.38;;;0.30;;
71790;SDS011;59638;52.126;5.434;2023-08-31T11:30:37;0.73;;;0.20;;
71790;SDS011;59638;52.126;5.434;2023-08-31T11:33:04;2.63;;;0.20;;
71790;SDS011;59638;52.126;5.434;2023-08-31T11:35:36;0.70;;;0.20;;
71790;SDS011;59638;52.126;5.434;2023-08-31T11:38:03;1.13;;;0.10;;
71790;SDS011;59638;52.126;5.434;2023-08-31T11:40:30;2.00;;;0.22;;
71790;SDS011;59638;52.126;5.434;2023-08-31T11:42:59;0.80;;;0.20;;
71790;SDS011;59638;52.126;5.434;2023-08-31T11:45:36;0.63;;;0.23;;
71790;SDS011;59638;52.126;5.434;2023-08-31T11:48:05;2.60;;;0.30;;
71790;SDS011;59638;52.126;5.434;2023-08-31T11:50:33;2.72;;;0.28;;
71790;SDS011;59638;52.126;5.434;2023-08-31T11:53:00;1.20;;;0.30;;
71790;SDS011;59638;52.126;5.434;2023-08-31T11:55:26;0.80;;;0.22;;
71790;SDS011;59638;52.126;5.434;2023-08-31T11:57:54;2.53;;;0.30;;
71790;SDS011;59638;52.126;5.434;2023-08-31T12:00:21;2.53;;;0.40;;
71790;SDS011;59638;52.126;5.434;2023-08-31T12:05:28;0.85;;;0.38;;
71790;SDS011;59638;52.126;5.434;2023-08-31T12:07:55;0.90;;;0.20;;
71790;SDS011;59638;52.126;5.434;2023-08-31T12:10:25;3.57;;;0.47;;
71790;SDS011;59638;52.126;5.434;2023-08-31T12:12:53;1.95;;;0.30;;
71790;SDS011;59638;52.126;5.434;2023-08-31T12:15:21;0.65;;;0.30;;
71790;SDS011;59638;52.126;5.434;2023-08-31T12:17:49;0.80;;;0.30;;
71790;SDS011;59638;52.126;5.434;2023-08-31T12:20:24;1.98;;;0.47;;
71790;SDS011;59638;52.126;5.434;2023-08-31T12:22:55;2.27;;;0.30;;
71790;SDS011;59638;52.126;5.434;2023-08-31T12:25:22;0.75;;;0.20;;
71790;SDS011;59638;52.126;5.434;2023-08-31T12:27:48;7.82;;;0.40;;
71790;SDS011;59638;52.126;5.434;2023-08-31T12:30:16;5.40;;;0.30;;
71790;SDS011;59638;52.126;5.434;2023-08-31T12:32:42;1.42;;;0.40;;
71790;SDS011;59638;52.126;5.434;2023-08-31T12:35:09;2.57;;;0.50;;
71790;SDS011;59638;52.126;5.434;2023-08-31T12:37:36;2.25;;;0.50;;
71790;SDS011;59638;52.126;5.434;2023-08-31T12:40:02;2.05;;;0.20;;
71790;SDS011;59638;52.126;5.434;2023-08-31T12:42:33;2.50;;;0.20;;
71790;SDS011;59638;52.126;5.434;2023-08-31T12:44:59;1.80;;;0.30;;
71790;SDS011;59638;52.126;5.434;2023-08-31T12:47:26;2.00;;;0.37;;
71790;SDS011;59638;52.126;5.434;2023-08-31T12:49:52;0.70;;;0.22;;
71790;SDS011;59638;52.126;5.434;2023-08-31T12:52:18;0.88;;;0.22;;
71790;SDS011;59638;52.126;5.434;2023-08-31T12:54:45;1.30;;;0.20;;
71790;SDS011;59638;52.126;5.434;2023-08-31T12:57:12;1.40;;;0.30;;
71790;SDS011;59638;52.126;5.434;2023-08-31T12:59:39;2.50;;;0.37;;
71790;SDS011;59638;52.126;5.434;2023-08-31T13:02:05;1.65;;;0.20;;
71790;SDS011;59638;52.126;5.434;2023-08-31T13:04:37;1.35;;;0.20;;
71790;SDS011;59638;52.126;5.434;2023-08-31T13:07:06;2.95;;;0.25;;
71790;SDS011;59638;52.126;5.434;2023-08-31T13:09:32;3.42;;;0.22;;
71790;SDS011;59638;52.126;5.434;2023-08-31T13:11:58;2.13;;;0.40;;
71790;SDS011;59638;52.126;5.434;2023-08-31T13:14:25;5.75;;;0.63;;
71790;SDS011;59638;52.126;5.434;2023-08-31T13:16:51;3.67;;;0.20;;
71790;SDS011;59638;52.126;5.434;2023-08-31T13:19:18;2.42;;;0.20;;
71790;SDS011;59638;52.126;5.434;2023-08-31T13:21:45;2.55;;;0.20;;
71790;SDS011;59638;52.126;5.434;2023-08-31T13:24:12;2.10;;;0.20;;
71790;SDS011;59638;52.126;5.434;2023-08-31T13:26:38;0.88;;;0.20;;
71790;SDS011;59638;52.126;5.434;2023-08-31T13:29:05;2.97;;;0.20;;
71790;SDS011;59638;52.126;5.434;2023-08-31T13:31:31;3.55;;;0.30;;
71790;SDS011;59638;52.126;5.434;2023-08-31T13:33:58;1.73;;;0.20;;
71790;SDS011;59638;52.126;5.434;2023-08-31T13:36:24;2.07;;;0.20;;
71790;SDS011;59638;52.126;5.434;2023-08-31T13:38:51;1.35;;;0.30;;
71790;SDS011;59638;52.126;5.434;2023-08-31T13:41:17;1.63;;;0.30;;
71790;SDS011;59638;52.126;5.434;2023-08-31T13:43:44;1.45;;;0.20;;
71790;SDS011;59638;52.126;5.434;2023-08-31T13:46:10;1.90;;;0.20;;
71790;SDS011;59638;52.126;5.434;2023-08-31T13:48:37;0.93;;;0.20;;
71790;SDS011;59638;52.126;5.434;2023-08-31T13:51:04;0.93;;;0.43;;
71790;SDS011;59638;52.126;5.434;2023-08-31T13:53:30;2.30;;;0.20;;
71790;SDS011;59638;52.126;5.434;2023-08-31T13:55:56;3.38;;;0.60;;
71790;SDS011;59638;52.126;5.434;2023-08-31T13:58:23;2.28;;;0.20;;
71790;SDS011;59638;52.126;5.434;2023-08-31T14:00:49;1.73;;;0.30;;
71790;SDS011;59638;52.126;5.434;2023-08-31T14:03:16;0.68;;;0.13;;
71790;SDS011;59638;52.126;5.434;2023-08-31T14:05:47;2.10;;;0.20;;
71790;SDS011;59638;52.126;5.434;2023-08-31T14:08:14;2.45;;;0.20;;
71790;SDS011;59638;52.126;5.434;2023-08-31T14:10:41;1.25;;;0.30;;
71790;SDS011;59638;52.126;5.434;2023-08-31T14:13:07;0.60;;;0.10;;
71790;SDS011;59638;52.126;5.434;2023-08-31T14:15:33;1.40;;;0.20;;
71790;SDS011;59638;52.126;5.434;2023-08-31T14:18:00;1.52;;;0.20;;
71790;SDS011;59638;52.126;5.434;2023-08-31T14:20:27;0.70;;;0.10;;
71790;SDS011;59638;52.126;5.434;2023-08-31T14:22:53;1.73;;;0.20;;
71790;SDS011;59638;52.126;5.434;2023-08-31T14:25:19;1.37;;;0.17;;
71790;SDS011;59638;52.126;5.434;2023-08-31T14:27:50;0.55;;;0.10;;
71790;SDS011;59638;52.126;5.434;2023-08-31T14:30:16;1.15;;;0.10;;
71790;SDS011;59638;52.126;5.434;2023-08-31T14:32:42;1.77;;;0.20;;
71790;SDS011;59638;52.126;5.434;2023-08-31T14:35:09;2.47;;;0.20;;
71790;SDS011;59638;52.126;5.434;2023-08-31T14:37:36;1.07;;;0.20;;
71790;SDS011;59638;52.126;5.434;2023-08-31T14:40:02;3.03;;;0.20;;
71790;SDS011;59638;52.126;5.434;2023-08-31T14:42:32;1.08;;;0.20;;
71790;SDS011;59638;52.126;5.434;2023-08-31T14:44:59;1.52;;;0.30;;
71790;SDS011;59638;52.126;5.434;2023-08-31T14:47:26;2.13;;;0.65;;
71790;SDS011;59638;52.126;5.434;2023-08-31T14:49:54;2.57;;;0.30;;
71790;SDS011;59638;52.126;5.434;2023-08-31T14:52:21;1.08;;;0.20;;
71790;SDS011;59638;52.126;5.434;2023-08-31T14:54:47;0.82;;;0.38;;
71790;SDS011;59638;52.126;5.434;2023-08-31T14:57:14;1.90;;;0.20;;
71790;SDS011;59638;52.126;5.434;2023-08-31T14:59:41;2.25;;;0.10;;
71790;SDS011;59638;52.126;5.434;2023-08-31T15:02:08;1.80;;;0.37;;
71790;SDS011;59638;52.126;5.434;2023-08-31T15:04:34;1.48;;;0.60;;
71790;SDS011;59638;52.126;5.434;2023-08-31T15:07:01;0.95;;;0.10;;
71790;SDS011;59638;52.126;5.434;2023-08-31T15:09:27;2.90;;;0.20;;
71790;SDS011;59638;52.126;5.434;2023-08-31T15:11:54;0.98;;;0.20;;
71790;SDS011;59638;52.126;5.434;2023-08-31T15:14:20;0.83;;;0.40;;
71790;SDS011;59638;52.126;5.434;2023-08-31T15:16:47;2.38;;;0.20;;